Time;durP1;ratioP1;P1;durP2;ratioP2;P2;SDS_P1;SDS_P2;PMS_P1;PMS_P2;Temp;Humidity;BMP_temperature;BMP_pressure;BME280_temperature;BME280_humidity;BME280_pressure;Samples;Min_cycle;Max_cycle;Signal;HPM_P1;HPM_P2
2023/12/01 00:01:26;;;;;;;8.10;7.40;;;;;;;3.39;100.00;94867.69;5075075;28;20207;-53
2023/12/01 00:03:54;;;;;;;7.37;6.70;;;;;;;3.40;100.00;94858.09;5074810;28;20287;-53
2023/12/01 00:06:22;;;;;;;8.43;7.63;;;;;;;3.35;100.00;94861.13;5074950;28;20207;-52
2023/12/01 00:08:49;;;;;;;6.93;6.33;;;;;;;3.33;100.00;94860.41;5074472;28;20213;-51
2023/12/01 00:11:17;;;;;;;7.57;6.87;;;;;;;3.34;100.00;94861.25;5076030;28;20202;-52
2023/12/01 00:13:44;;;;;;;7.97;7.17;;;;;;;3.30;100.00;94858.09;5076591;28;20220;-54
2023/12/01 00:16:11;;;;;;;7.27;6.67;;;;;;;3.35;100.00;94850.66;5075315;28;20220;-51
2023/12/01 00:18:37;;;;;;;7.60;6.90;;;;;;;3.32;100.00;94850.97;5074600;28;20230;-53
2023/12/01 00:21:06;;;;;;;7.00;6.40;;;;;;;3.30;100.00;94846.81;5076321;28;20202;-53
2023/12/01 00:23:32;;;;;;;7.13;6.53;;;;;;;3.32;100.00;94866.63;5075031;28;20208;-52
2023/12/01 00:25:59;;;;;;;7.67;7.07;;;;;;;3.32;100.00;94860.56;5075955;28;20285;-53
2023/12/01 00:28:26;;;;;;;7.90;7.20;;;;;;;3.37;100.00;94858.34;5076540;28;20233;-52
2023/12/01 00:30:52;;;;;;;7.07;6.23;;;;;;;3.30;100.00;94868.53;5075085;28;20210;-52
2023/12/01 00:33:19;;;;;;;7.70;6.90;;;;;;;3.24;100.00;94861.28;5074463;28;20207;-53
2023/12/01 00:35:45;;;;;;;8.03;7.30;;;;;;;3.27;100.00;94857.56;5074907;28;20206;-53
2023/12/01 00:38:14;;;;;;;9.53;8.70;;;;;;;3.23;100.00;94848.34;5078992;28;20684;-52
2023/12/01 00:40:41;;;;;;;8.30;7.50;;;;;;;3.20;100.00;94861.69;5089474;28;20208;-54
2023/12/01 00:43:09;;;;;;;8.80;7.93;;;;;;;3.21;100.00;94860.75;5097482;28;20246;-52
2023/12/01 00:45:36;;;;;;;8.77;7.87;;;;;;;3.27;100.00;94858.38;5118496;28;20178;-53
2023/12/01 00:48:03;;;;;;;8.77;7.97;;;;;;;3.23;100.00;94853.56;5100266;28;20194;-53
2023/12/01 00:50:30;;;;;;;7.87;7.17;;;;;;;3.21;100.00;94858.97;5098054;28;20187;-53
2023/12/01 00:52:56;;;;;;;7.43;6.73;;;;;;;3.25;100.00;94859.50;5098169;28;20213;-53
2023/12/01 00:55:24;;;;;;;7.30;6.57;;;;;;;3.24;100.00;94868.28;5097240;28;20209;-53
2023/12/01 00:57:53;;;;;;;6.97;6.37;;;;;;;3.23;100.00;94870.06;5097424;28;20278;-53
2023/12/01 01:00:20;;;;;;;6.87;6.37;;;;;;;3.25;100.00;94864.72;5097699;28;20241;-53
2023/12/01 01:02:47;;;;;;;6.90;6.30;;;;;;;3.20;100.00;94866.94;5085872;28;20285;-53
2023/12/01 01:05:13;;;;;;;6.30;5.80;;;;;;;3.24;100.00;94869.13;5075061;28;20300;-53
2023/12/01 01:07:40;;;;;;;6.67;6.07;;;;;;;3.23;100.00;94864.03;5073503;28;20285;-53
2023/12/01 01:10:07;;;;;;;6.97;6.30;;;;;;;3.21;100.00;94856.34;5078047;28;20201;-54
2023/12/01 01:12:35;;;;;;;6.50;6.00;;;;;;;3.19;100.00;94860.06;5075626;28;20292;-53
2023/12/01 01:15:03;;;;;;;6.73;6.17;;;;;;;3.14;100.00;94868.31;5075666;28;20214;-53
2023/12/01 01:17:29;;;;;;;7.00;6.33;;;;;;;3.19;100.00;94870.53;5074232;28;20210;-52
2023/12/01 01:19:58;;;;;;;6.77;5.90;;;;;;;3.18;100.00;94877.53;5078860;28;20288;-53
2023/12/01 01:22:24;;;;;;;7.03;6.43;;;;;;;3.20;100.00;94874.75;5075923;28;20210;-54
2023/12/01 01:24:51;;;;;;;6.73;6.13;;;;;;;3.20;100.00;94882.59;5075547;28;20206;-53
2023/12/01 01:27:18;;;;;;;6.63;6.03;;;;;;;3.20;100.00;94878.19;5074227;28;20212;-53
2023/12/01 01:29:46;;;;;;;6.97;6.27;;;;;;;3.22;100.00;94891.13;5073693;28;20515;-52
2023/12/01 01:32:13;;;;;;;6.90;6.23;;;;;;;3.14;100.00;94888.38;5074923;28;20212;-53
2023/12/01 01:34:40;;;;;;;7.73;7.03;;;;;;;3.16;100.00;94892.50;5079407;28;20233;-52
2023/12/01 01:37:09;;;;;;;7.83;7.17;;;;;;;3.17;100.00;94903.78;5078001;28;20306;-53
2023/12/01 01:39:35;;;;;;;8.50;7.80;;;;;;;3.20;100.00;94906.09;5079291;28;20230;-53
2023/12/01 01:42:02;;;;;;;7.13;6.60;;;;;;;3.17;100.00;94914.22;5081238;28;20317;-53
2023/12/01 01:44:28;;;;;;;7.50;6.90;;;;;;;3.17;100.00;94922.06;5082052;28;20256;-53
2023/12/01 01:46:56;;;;;;;7.53;6.87;;;;;;;3.18;100.00;94921.09;5088541;28;20289;-52
2023/12/01 01:49:28;;;;;;;7.60;6.90;;;;;;;3.19;100.00;94920.16;5077245;28;20631;-51
2023/12/01 01:51:55;;;;;;;7.90;7.20;;;;;;;3.18;100.00;94921.09;5077424;28;20243;-53
2023/12/01 01:54:23;;;;;;;7.67;7.07;;;;;;;3.19;100.00;94943.66;5076745;28;20210;-53
2023/12/01 01:56:51;;;;;;;8.20;7.50;;;;;;;3.21;100.00;94928.66;5077282;28;20208;-53
2023/12/01 01:59:19;;;;;;;8.03;7.33;;;;;;;3.13;100.00;94918.06;5076912;28;20238;-53
2023/12/01 02:01:49;;;;;;;7.47;6.87;;;;;;;3.16;100.00;94917.78;5076797;28;20240;-53
2023/12/01 02:04:17;;;;;;;7.57;6.97;;;;;;;3.18;100.00;94914.09;5077175;28;20207;-52
2023/12/01 02:06:45;;;;;;;7.87;7.20;;;;;;;3.19;100.00;94909.69;5076809;28;20209;-52
2023/12/01 02:09:13;;;;;;;8.13;7.43;;;;;;;3.18;100.00;94905.44;5076618;28;20297;-54
2023/12/01 02:11:39;;;;;;;7.93;7.33;;;;;;;3.18;100.00;94900.22;5077584;28;20217;-53
2023/12/01 02:14:06;;;;;;;8.30;7.60;;;;;;;3.17;100.00;94903.78;5077261;28;20297;-52
2023/12/01 02:16:32;;;;;;;7.80;7.10;;;;;;;3.18;100.00;94905.44;5076962;28;20208;-53
2023/12/01 02:18:59;;;;;;;7.60;7.00;;;;;;;3.16;100.00;94902.13;5076732;28;20236;-52
2023/12/01 02:21:27;;;;;;;7.67;6.97;;;;;;;3.21;100.00;94890.31;5076460;28;20212;-53
2023/12/01 02:23:56;;;;;;;8.27;7.57;;;;;;;3.12;100.00;94895.56;5076242;28;20293;-53
2023/12/01 02:26:23;;;;;;;7.30;6.70;;;;;;;3.12;100.00;94892.94;5076893;28;20212;-54
2023/12/01 02:28:50;;;;;;;7.40;6.80;;;;;;;3.12;100.00;94891.13;5075465;28;20218;-53
2023/12/01 02:31:17;;;;;;;7.33;6.73;;;;;;;3.11;100.00;94886.91;5069261;28;20206;-53
2023/12/01 02:33:43;;;;;;;7.53;6.93;;;;;;;3.15;100.00;94893.50;5076545;28;20297;-54
2023/12/01 02:36:11;;;;;;;7.10;6.50;;;;;;;3.14;100.00;94883.16;5076655;28;20217;-53
2023/12/01 02:38:38;;;;;;;7.10;6.50;;;;;;;3.15;100.00;94879.59;5076201;28;20229;-54
2023/12/01 02:41:06;;;;;;;6.97;6.37;;;;;;;3.17;100.00;94877.66;5069971;28;20198;-53
2023/12/01 02:43:33;;;;;;;6.50;6.00;;;;;;;3.19;100.00;94873.13;5079180;28;20237;-53
2023/12/01 02:46:00;;;;;;;7.00;6.40;;;;;;;3.27;100.00;94875.84;5078750;28;20206;-52
2023/12/01 02:48:27;;;;;;;6.67;6.13;;;;;;;3.20;100.00;94874.75;5076272;28;20198;-53
2023/12/01 02:50:54;;;;;;;6.97;6.27;;;;;;;3.17;100.00;94877.66;5076315;28;20202;-52
2023/12/01 02:53:21;;;;;;;6.00;5.50;;;;;;;3.15;100.00;94882.22;5076114;28;20202;-51
2023/12/01 02:55:47;;;;;;;5.90;5.47;;;;;;;3.19;100.00;94875.75;5076424;28;20266;-53
2023/12/01 02:58:15;;;;;;;5.37;4.97;;;;;;;3.18;100.00;94884.53;5084072;28;20631;-52
2023/12/01 03:00:42;;;;;;;5.10;4.70;;;;;;;3.18;100.00;94887.97;5080109;28;20228;-54
2023/12/01 03:03:09;;;;;;;5.20;4.80;;;;;;;3.18;100.00;94893.19;5078889;28;20213;-53
2023/12/01 03:05:36;;;;;;;5.50;5.10;;;;;;;3.17;100.00;94890.72;5078343;28;20221;-53
2023/12/01 03:08:03;;;;;;;5.13;4.73;;;;;;;3.14;100.00;94894.44;5083217;28;20293;-54
2023/12/01 03:10:29;;;;;;;4.70;4.40;;;;;;;3.17;100.00;94893.31;5078529;28;20326;-53
2023/12/01 03:12:56;;;;;;;4.50;4.20;;;;;;;3.24;100.00;94899.63;5077431;28;20234;-53
2023/12/01 03:15:24;;;;;;;4.60;4.20;;;;;;;3.21;100.00;94902.53;5076915;28;20217;-52
2023/12/01 03:17:51;;;;;;;4.20;3.90;;;;;;;3.17;100.00;94909.81;5077524;28;20206;-53
2023/12/01 03:20:17;;;;;;;4.43;4.13;;;;;;;3.15;100.00;94900.50;5076561;28;20218;-54
2023/12/01 03:22:46;;;;;;;4.37;4.07;;;;;;;3.16;100.00;94902.13;5076491;28;20217;-53
2023/12/01 03:25:14;;;;;;;4.10;3.90;;;;;;;3.14;100.00;94891.00;5085536;28;20292;-54
2023/12/01 03:27:41;;;;;;;4.30;4.00;;;;;;;3.17;100.00;94903.78;5075954;28;20217;-52
2023/12/01 03:30:13;;;;;;;4.07;3.77;;;;;;;3.18;100.00;94901.03;5076494;28;20305;-53
2023/12/01 03:32:44;;;;;;;4.50;4.20;;;;;;;3.19;100.00;94891.41;5081061;28;20207;-52
2023/12/01 03:35:10;;;;;;;4.70;4.40;;;;;;;3.19;100.00;94901.88;5103186;28;20225;-54
2023/12/01 03:37:37;;;;;;;4.10;3.80;;;;;;;3.19;100.00;94894.03;5092903;28;20245;-53
2023/12/01 03:40:07;;;;;;;5.17;4.77;;;;;;;3.10;100.00;94893.06;5090884;28;20226;-53
2023/12/01 03:42:33;;;;;;;4.70;4.40;;;;;;;3.19;100.00;94894.03;5090095;28;20202;-54
2023/12/01 03:45:00;;;;;;;4.50;4.20;;;;;;;3.21;100.00;94902.53;5092744;28;20246;-53
2023/12/01 03:47:27;;;;;;;5.43;5.03;;;;;;;3.24;100.00;94910.91;5092244;28;20322;-52
2023/12/01 03:49:55;;;;;;;5.87;5.43;;;;;;;3.23;100.00;94904.03;5086258;28;20298;-54
2023/12/01 03:52:21;;;;;;;5.83;5.33;;;;;;;3.23;100.00;94906.63;5076705;28;20301;-54
2023/12/01 03:54:48;;;;;;;6.23;5.73;;;;;;;3.21;100.00;94910.38;5070093;28;20206;-54
2023/12/01 03:57:14;;;;;;;6.10;5.60;;;;;;;3.22;100.00;94906.81;5074297;28;20262;-55
2023/12/01 03:59:41;;;;;;;5.80;5.40;;;;;;;3.20;100.00;94916.53;5076762;28;20244;-53
2023/12/01 04:02:09;;;;;;;5.87;5.37;;;;;;;3.22;100.00;94912.03;5076586;28;20202;-54
2023/12/01 04:04:35;;;;;;;5.77;5.33;;;;;;;3.20;100.00;94919.16;5077555;28;20207;-52
2023/12/01 04:07:07;;;;;;;5.87;5.47;;;;;;;3.22;100.00;94922.47;5078220;28;20221;-54
2023/12/01 04:09:36;;;;;;;5.43;5.03;;;;;;;3.23;100.00;94924.09;5078580;28;20225;-53
2023/12/01 04:12:02;;;;;;;5.27;4.87;;;;;;;3.19;100.00;94928.78;5078290;28;20202;-53
2023/12/01 04:14:30;;;;;;;5.40;5.00;;;;;;;3.22;100.00;94931.13;5077137;28;20202;-54
2023/12/01 04:16:56;;;;;;;5.20;4.80;;;;;;;3.21;100.00;94926.03;5076971;28;20213;-55
2023/12/01 04:19:24;;;;;;;5.60;5.20;;;;;;;3.24;100.00;94926.59;5076274;28;20237;-53
2023/12/01 04:21:52;;;;;;;5.07;4.67;;;;;;;3.24;100.00;94925.75;5068755;28;20214;-51
2023/12/01 04:24:21;;;;;;;5.80;5.30;;;;;;;3.19;100.00;94926.16;5075240;28;20202;-53
2023/12/01 04:26:48;;;;;;;5.30;4.90;;;;;;;3.26;100.00;94935.09;5076194;28;20545;-53
2023/12/01 04:29:15;;;;;;;7.93;5.30;;;;;;;3.24;100.00;94937.03;5074705;28;20206;-52
2023/12/01 04:31:41;;;;;;;5.53;5.13;;;;;;;3.29;100.00;94949.69;5074232;28;20202;-55
2023/12/01 04:34:08;;;;;;;5.20;4.80;;;;;;;3.25;100.00;94943.91;5074360;28;20301;-53
2023/12/01 04:36:34;;;;;;;5.50;5.10;;;;;;;3.18;100.00;94947.22;5074775;28;20213;-54
2023/12/01 04:39:03;;;;;;;4.97;4.60;;;;;;;3.16;100.00;94949.94;5074493;28;20589;-53
2023/12/01 04:41:31;;;;;;;4.97;4.57;;;;;;;3.17;100.00;94950.78;5075599;28;20213;-54
2023/12/01 04:43:58;;;;;;;5.03;4.63;;;;;;;3.15;100.00;94950.09;5080979;28;20212;-53
2023/12/01 04:46:24;;;;;;;6.23;5.73;;;;;;;3.18;100.00;94952.44;5073419;28;20289;-52
2023/12/01 04:48:53;;;;;;;6.43;5.60;;;;;;;3.16;100.00;94939.50;5074816;28;20202;-54
2023/12/01 04:51:20;;;;;;;5.87;5.37;;;;;;;3.25;100.00;94938.69;5080624;28;20198;-52
2023/12/01 04:53:48;;;;;;;5.60;5.20;;;;;;;3.25;100.00;94940.47;5073772;28;20210;-52
2023/12/01 04:56:14;;;;;;;5.67;5.27;;;;;;;3.26;100.00;94935.09;5075237;28;20205;-53
2023/12/01 04:58:42;;;;;;;6.37;5.87;;;;;;;3.27;100.00;94941.13;5073785;28;20238;-54
2023/12/01 05:01:10;;;;;;;6.07;5.57;;;;;;;3.21;100.00;94939.91;5076557;28;20252;-52
2023/12/01 05:03:36;;;;;;;6.03;5.53;;;;;;;3.24;100.00;94946.66;5080312;28;20206;-53
2023/12/01 05:06:03;;;;;;;5.50;5.10;;;;;;;3.23;100.00;94950.22;5074112;28;20210;-54
2023/12/01 05:08:30;;;;;;;6.20;5.60;;;;;;;3.22;100.00;94948.59;5073934;28;20285;-54
2023/12/01 05:10:56;;;;;;;5.00;4.60;;;;;;;3.23;100.00;94945.00;5083449;28;20627;-54
2023/12/01 05:13:24;;;;;;;5.90;5.50;;;;;;;3.28;100.00;94943.63;5085811;28;20539;-54
2023/12/01 05:15:55;;;;;;;6.50;5.90;;;;;;;3.27;100.00;94938.53;5078296;28;20289;-53
2023/12/01 05:18:22;;;;;;;6.00;5.50;;;;;;;3.27;100.00;94930.69;5078006;28;20217;-53
2023/12/01 05:20:48;;;;;;;5.80;5.40;;;;;;;3.26;100.00;94940.31;5077414;28;20226;-53
2023/12/01 05:23:16;;;;;;;5.53;4.93;;;;;;;3.29;100.00;94944.44;5079202;28;20214;-53
2023/12/01 05:25:44;;;;;;;5.73;5.33;;;;;;;3.31;100.00;94945.13;5083144;28;20601;-54
2023/12/01 05:28:11;;;;;;;5.00;4.60;;;;;;;3.32;100.00;94945.00;5082782;28;20216;-55
2023/12/01 05:30:40;;;;;;;5.30;4.80;;;;;;;3.33;100.00;94935.38;5090028;28;20249;-53
2023/12/01 05:33:08;;;;;;;5.20;4.83;;;;;;;3.35;100.00;94926.41;5088468;28;20213;-53
2023/12/01 05:35:36;;;;;;;5.33;4.93;;;;;;;3.38;100.00;94933.97;5093214;28;20244;-54
2023/12/01 05:38:04;;;;;;;5.17;4.77;;;;;;;3.34;100.00;94934.38;5093680;28;20217;-53
2023/12/01 05:40:34;;;;;;;5.53;5.10;;;;;;;3.31;100.00;94930.28;5097545;28;20222;-54
2023/12/01 05:43:01;;;;;;;5.60;5.20;;;;;;;3.34;100.00;94931.78;5094333;28;20220;-53
2023/12/01 05:45:28;;;;;;;5.40;5.00;;;;;;;3.32;100.00;94933.72;5089596;28;20198;-54
2023/12/01 05:47:56;;;;;;;4.60;4.30;;;;;;;3.32;100.00;94945.00;5087131;28;20203;-53
2023/12/01 05:50:24;;;;;;;4.53;4.23;;;;;;;3.30;100.00;94948.69;5087010;28;20237;-53
2023/12/01 05:52:52;;;;;;;3.90;3.60;;;;;;;3.30;100.00;94946.06;5085413;28;20225;-53
2023/12/01 05:55:20;;;;;;;4.03;3.77;;;;;;;3.31;100.00;94948.56;5082533;28;20258;-53
2023/12/01 05:57:48;;;;;;;4.53;4.23;;;;;;;3.32;100.00;94952.84;5079436;28;20228;-52
2023/12/01 06:00:17;;;;;;;3.97;3.53;;;;;;;3.32;100.00;94949.38;5077721;28;20244;-54
2023/12/01 06:02:44;;;;;;;4.00;3.70;;;;;;;3.34;100.00;94950.06;5077221;28;20218;-53
2023/12/01 06:05:12;;;;;;;4.00;3.70;;;;;;;3.36;100.00;94956.81;5078642;28;20212;-53
2023/12/01 06:07:43;;;;;;;4.23;3.83;;;;;;;3.37;100.00;94960.22;5076970;28;20198;-55
2023/12/01 06:10:10;;;;;;;4.63;4.33;;;;;;;3.38;100.00;94956.66;5079875;28;20222;-53
2023/12/01 06:12:38;;;;;;;4.43;4.13;;;;;;;3.36;100.00;94966.44;5081798;28;20221;-55
2023/12/01 06:15:06;;;;;;;4.30;4.00;;;;;;;3.39;100.00;94963.53;5085271;28;20213;-52
2023/12/01 06:17:33;;;;;;;4.67;4.37;;;;;;;3.41;100.00;94961.59;5087903;28;20647;-51
2023/12/01 06:20:00;;;;;;;4.20;3.90;;;;;;;3.43;100.00;94950.06;5080553;28;20226;-53
2023/12/01 06:22:26;;;;;;;5.37;4.00;;;;;;;3.45;100.00;94955.13;5078830;28;20213;-53
2023/12/01 06:24:54;;;;;;;5.47;4.20;;;;;;;3.48;100.00;94960.91;5092129;28;20269;-53
2023/12/01 06:27:22;;;;;;;4.73;4.40;;;;;;;3.43;100.00;94962.28;5090567;28;20213;-52
2023/12/01 06:29:49;;;;;;;5.13;4.80;;;;;;;3.44;100.00;94956.09;5086023;28;20285;-53
2023/12/01 06:32:18;;;;;;;5.17;4.77;;;;;;;3.45;100.00;94955.13;5081983;28;20214;-53
2023/12/01 06:34:44;;;;;;;5.30;5.00;;;;;;;3.43;100.00;94962.28;5080834;28;20213;-54
2023/12/01 06:37:11;;;;;;;5.70;5.20;;;;;;;3.44;100.00;94969.16;5080782;28;20213;-52
2023/12/01 06:39:37;;;;;;;6.27;5.70;;;;;;;3.50;100.00;94973.84;5077126;28;20677;-52
2023/12/01 06:42:06;;;;;;;6.13;5.33;;;;;;;3.47;100.00;94969.69;5077534;28;20289;-55
2023/12/01 06:44:34;;;;;;;5.53;4.90;;;;;;;3.51;100.00;94980.69;5077542;28;20289;-56
2023/12/01 06:47:01;;;;;;;5.50;5.10;;;;;;;3.48;100.00;94981.81;5082507;28;20542;-52
2023/12/01 06:49:29;;;;;;;5.00;4.60;;;;;;;3.46;100.00;94983.75;5077369;28;20225;-60
2023/12/01 06:51:58;;;;;;;5.50;5.00;;;;;;;3.48;100.00;94986.19;5076530;28;20222;-58
2023/12/01 06:54:27;;;;;;;5.40;4.60;;;;;;;3.49;100.00;94987.84;5075795;28;20400;-54
2023/12/01 06:56:54;;;;;;;5.50;5.10;;;;;;;3.49;100.00;94987.84;5075027;28;20218;-52
2023/12/01 06:59:22;;;;;;;6.90;6.27;;;;;;;3.49;100.00;94991.28;5075904;28;20244;-51
2023/12/01 07:01:49;;;;;;;6.33;5.73;;;;;;;3.53;100.00;94997.06;5075774;28;20631;-52
2023/12/01 07:04:16;;;;;;;5.97;5.40;;;;;;;3.53;100.00;95004.06;5074816;28;20846;-53
2023/12/01 07:06:46;;;;;;;6.07;5.57;;;;;;;3.51;100.00;95005.03;5077408;28;20267;-53
2023/12/01 07:09:17;;;;;;;5.50;5.00;;;;;;;3.50;100.00;94994.75;5076322;28;20206;-52
2023/12/01 07:11:44;;;;;;;8.43;4.67;;;;;;;3.50;100.00;95005.19;5076782;28;20275;-54
2023/12/01 07:14:12;;;;;;;6.13;5.50;;;;;;;3.51;100.00;94998.97;5076092;28;20293;-54
2023/12/01 07:16:43;;;;;;;6.50;5.97;;;;;;;3.55;100.00;95018.63;5075698;28;20206;-53
2023/12/01 07:19:12;;;;;;;6.20;5.60;;;;;;;3.55;100.00;95018.63;5075211;28;20217;-53
2023/12/01 07:21:39;;;;;;;6.30;5.80;;;;;;;3.52;100.00;95013.69;5075898;28;20222;-54
2023/12/01 07:24:08;;;;;;;6.10;5.60;;;;;;;3.53;100.00;95004.06;5074196;28;20210;-54
2023/12/01 07:26:35;;;;;;;5.87;5.40;;;;;;;3.60;100.00;95006.00;5074653;28;20210;-53
2023/12/01 07:29:04;;;;;;;7.30;5.43;;;;;;;3.56;100.00;95020.28;5075455;28;20653;-54
2023/12/01 07:31:31;;;;;;;6.43;5.80;;;;;;;3.58;100.00;95018.34;5074824;28;20809;-53
2023/12/01 07:33:58;;;;;;;6.27;5.77;;;;;;;3.50;100.00;95018.25;5075728;28;20209;-55
2023/12/01 07:36:25;;;;;;;6.73;6.13;;;;;;;3.54;100.00;95024.03;5076367;28;20217;-54
2023/12/01 07:38:52;;;;;;;7.47;5.57;;;;;;;3.52;100.00;95018.94;5081442;28;20207;-54
2023/12/01 07:41:21;;;;;;;6.27;5.77;;;;;;;3.59;100.00;95027.03;5090597;28;20607;-52
2023/12/01 07:43:47;;;;;;;5.63;5.13;;;;;;;3.60;100.00;95037.34;5074250;28;20206;-55
2023/12/01 07:46:15;;;;;;;6.10;5.60;;;;;;;3.57;100.00;95029.78;5074988;28;20325;-54
2023/12/01 07:48:43;;;;;;;5.93;5.33;;;;;;;3.61;100.00;95038.19;5075832;28;20217;-53
2023/12/01 07:51:11;;;;;;;5.27;4.87;;;;;;;3.61;100.00;95036.41;5075538;28;20194;-53
2023/12/01 07:53:40;;;;;;;5.50;5.00;;;;;;;3.63;100.00;95037.06;5075399;28;20551;-53
2023/12/01 07:56:08;;;;;;;7.13;5.03;;;;;;;3.62;100.00;95032.78;5075642;28;20206;-54
2023/12/01 07:58:34;;;;;;;6.00;5.50;;;;;;;3.60;100.00;95032.13;5075068;28;20281;-54
2023/12/01 08:01:01;;;;;;;6.63;5.90;;;;;;;3.61;100.00;95031.16;5075310;28;20313;-55
2023/12/01 08:03:29;;;;;;;6.13;5.53;;;;;;;3.63;100.00;95029.22;5075109;28;20206;-55
2023/12/01 08:05:59;;;;;;;6.17;5.67;;;;;;;3.64;100.00;95023.03;5075616;28;20341;-53
2023/12/01 08:08:29;;;;;;;6.77;5.93;;;;;;;3.63;100.00;95025.78;5075395;28;20214;-54
2023/12/01 08:10:59;;;;;;;6.00;5.50;;;;;;;3.66;100.00;95020.28;5077781;28;20273;-53
2023/12/01 08:13:25;;;;;;;6.30;5.67;;;;;;;3.67;100.00;95016.69;5093075;28;20226;-54
2023/12/01 08:15:53;;;;;;;6.50;5.90;;;;;;;3.67;100.00;95022.75;5092586;28;20233;-54
2023/12/01 08:18:19;;;;;;;6.30;5.70;;;;;;;3.66;100.00;95009.81;5092633;28;20607;-54
2023/12/01 08:20:46;;;;;;;6.37;5.83;;;;;;;3.66;100.00;95026.31;5092899;28;20250;-54
2023/12/01 08:23:13;;;;;;;6.27;5.77;;;;;;;3.68;100.00;95031.44;5088382;28;20210;-53
2023/12/01 08:25:44;;;;;;;6.57;5.97;;;;;;;3.75;100.00;95022.88;5094336;28;20208;-53
2023/12/01 08:28:15;;;;;;;6.23;5.67;;;;;;;3.77;100.00;95034.00;5093020;28;20209;-55
2023/12/01 08:30:44;;;;;;;6.60;5.70;;;;;;;3.77;100.00;95039.25;5082094;28;20229;-55
2023/12/01 08:33:12;;;;;;;6.23;5.73;;;;;;;3.72;100.00;95041.44;5089110;28;20203;-54
2023/12/01 08:35:38;;;;;;;5.97;5.47;;;;;;;3.74;100.00;95041.31;5090717;28;20222;-54
2023/12/01 08:38:09;;;;;;;6.50;5.90;;;;;;;3.73;100.00;95035.25;5090454;28;20250;-54
2023/12/01 08:40:36;;;;;;;6.90;5.60;;;;;;;3.72;100.00;95035.41;5088786;28;20283;-55
2023/12/01 08:43:06;;;;;;;6.03;5.53;;;;;;;3.79;100.00;95047.75;5087891;28;20221;-54
2023/12/01 08:45:34;;;;;;;6.43;5.83;;;;;;;3.81;100.00;95042.41;5073251;28;20211;-54
2023/12/01 08:48:00;;;;;;;5.87;5.37;;;;;;;3.84;100.00;95045.56;5081042;28;20212;-53
2023/12/01 08:50:27;;;;;;;6.30;5.80;;;;;;;3.92;100.00;95047.47;5080195;28;20270;-54
2023/12/01 08:52:54;;;;;;;7.70;5.90;;;;;;;3.89;100.00;95047.75;5076371;28;20217;-52
2023/12/01 08:55:21;;;;;;;5.63;5.23;;;;;;;3.88;100.00;95044.31;5076828;28;20210;-53
2023/12/01 08:57:47;;;;;;;6.50;6.00;;;;;;;3.85;100.00;95036.75;5075536;28;20594;-53
2023/12/01 09:00:20;;;;;;;6.23;5.73;;;;;;;3.86;100.00;95027.91;5075083;28;20235;-53
2023/12/01 09:02:47;;;;;;;7.73;5.53;;;;;;;3.86;100.00;95029.75;5075089;28;20206;-55
2023/12/01 09:05:14;;;;;;;7.37;6.23;;;;;;;3.88;100.00;95030.41;5074706;28;20289;-55
2023/12/01 09:07:40;;;;;;;6.50;5.90;;;;;;;3.90;100.00;95037.13;5074170;28;20210;-53
2023/12/01 09:10:07;;;;;;;7.00;6.33;;;;;;;3.93;100.00;95038.66;5074663;28;20297;-54
2023/12/01 09:12:36;;;;;;;6.30;5.70;;;;;;;3.92;100.00;95035.22;5074200;28;20307;-55
2023/12/01 09:15:02;;;;;;;5.50;5.10;;;;;;;3.95;100.00;95052.41;5074656;28;20206;-53
2023/12/01 09:17:30;;;;;;;5.53;5.03;;;;;;;3.97;100.00;95053.06;5066716;28;20288;-55
2023/12/01 09:19:56;;;;;;;8.60;5.07;;;;;;;3.97;100.00;95046.06;5077185;28;20217;-55
2023/12/01 09:22:23;;;;;;;5.63;5.13;;;;;;;3.98;100.00;95042.50;5081310;28;20270;-54
2023/12/01 09:24:50;;;;;;;5.33;4.93;;;;;;;4.03;100.00;95041.25;5074557;28;20667;-55
2023/12/01 09:27:17;;;;;;;5.47;4.97;;;;;;;4.07;100.00;95047.84;5074282;28;20548;-54
2023/12/01 09:29:43;;;;;;;6.57;5.00;;;;;;;4.05;100.00;95041.91;5073575;28;20214;-54
2023/12/01 09:32:10;;;;;;;5.40;4.90;;;;;;;4.10;100.00;95035.31;5074471;28;20218;-54
2023/12/01 09:34:38;;;;;;;6.93;6.23;;;;;;;4.04;100.00;95033.25;5074014;28;20210;-54
2023/12/01 09:37:04;;;;;;;5.83;5.33;;;;;;;4.15;100.00;95035.69;5079580;28;20201;-54
2023/12/01 09:39:31;;;;;;;6.47;5.87;;;;;;;4.15;100.00;95029.63;5076479;28;20212;-55
2023/12/01 09:41:58;;;;;;;5.97;5.47;;;;;;;4.15;100.00;95032.22;5076050;28;20217;-55
2023/12/01 09:44:26;;;;;;;5.80;5.30;;;;;;;4.20;100.00;95030.03;5079009;28;20202;-54
2023/12/01 09:46:53;;;;;;;5.67;5.17;;;;;;;4.23;100.00;95019.28;5080813;28;20202;-55
2023/12/01 09:49:20;;;;;;;6.20;5.43;;;;;;;4.30;100.00;95025.56;5073706;28;20206;-54
2023/12/01 09:51:48;;;;;;;6.30;5.73;;;;;;;4.28;100.00;95027.53;5075215;28;20224;-55
2023/12/01 09:54:15;;;;;;;6.17;5.67;;;;;;;4.28;100.00;95022.28;5074368;28;20198;-54
2023/12/01 09:56:41;;;;;;;6.50;5.90;;;;;;;4.29;100.00;95018.69;5078133;28;20293;-52
2023/12/01 09:59:15;;;;;;;6.60;5.93;;;;;;;4.33;100.00;95012.19;5077315;28;20753;-53
2023/12/01 10:01:42;;;;;;;7.43;6.43;;;;;;;4.33;100.00;95014.81;5078659;28;20210;-53
2023/12/01 10:04:08;;;;;;;6.97;6.27;;;;;;;4.36;100.00;95015.34;5079033;28;20202;-54
2023/12/01 10:06:37;;;;;;;8.27;6.90;;;;;;;4.32;100.00;95014.00;5077687;28;20207;-55
2023/12/01 10:09:09;;;;;;;8.77;6.60;;;;;;;4.43;100.00;95005.13;5077729;28;20198;-54
2023/12/01 10:11:36;;;;;;;7.30;6.60;;;;;;;4.43;100.00;94999.88;5077264;28;20203;-54
2023/12/01 10:14:07;;;;;;;7.60;6.87;;;;;;;4.49;100.00;95001.94;5078245;28;20206;-54
2023/12/01 10:16:36;;;;;;;8.23;6.13;;;;;;;4.49;100.00;94999.31;5076853;28;20289;-54
2023/12/01 10:19:05;;;;;;;6.57;5.97;;;;;;;4.44;100.00;94983.22;5077080;28;20203;-54
2023/12/01 10:21:43;;;;;;;6.27;5.73;;;;;;;4.48;100.00;94982.78;5076729;28;20226;-53
2023/12/01 10:24:16;;;;;;;6.53;5.93;;;;;;;4.51;100.00;94985.13;5077330;28;20532;-53
2023/12/01 10:26:43;;;;;;;7.03;6.43;;;;;;;4.53;100.00;94983.16;5076634;28;20213;-55
2023/12/01 10:29:28;;;;;;;6.67;5.97;;;;;;;4.61;100.00;94971.97;5081829;28;20210;-53
2023/12/01 10:31:56;;;;;;;6.87;6.27;;;;;;;4.60;100.00;94977.34;5083462;28;20678;-55
2023/12/01 10:34:24;;;;;;;6.40;5.80;;;;;;;4.64;100.00;94981.34;5081197;28;20198;-54
2023/12/01 10:36:52;;;;;;;5.97;5.47;;;;;;;4.64;100.00;94984.75;5078677;28;20233;-54
2023/12/01 10:39:27;;;;;;;6.80;6.20;;;;;;;4.70;100.00;94985.97;5076066;28;20214;-53
2023/12/01 10:41:55;;;;;;;6.00;5.40;;;;;;;4.73;100.00;94976.03;5083452;28;20210;-53
2023/12/01 10:44:24;;;;;;;6.60;5.97;;;;;;;4.75;100.00;94968.00;5080049;28;20295;-53
2023/12/01 10:46:52;;;;;;;5.30;4.90;;;;;;;4.72;100.00;94963.91;5073998;28;20198;-54
2023/12/01 10:49:19;;;;;;;4.73;4.40;;;;;;;4.69;100.00;94964.19;5079328;28;20627;-53
2023/12/01 10:51:50;;;;;;;4.30;3.90;;;;;;;4.76;100.00;94956.56;5077392;28;20213;-53
2023/12/01 10:54:17;;;;;;;4.23;3.83;;;;;;;4.74;100.00;94954.13;5076675;28;20226;-55
2023/12/01 10:56:56;;;;;;;4.20;3.90;;;;;;;4.72;100.00;94953.44;5076586;28;20206;-54
2023/12/01 10:59:25;;;;;;;4.10;3.77;;;;;;;4.76;100.00;94946.91;5076753;28;21611;-55
2023/12/01 11:01:52;;;;;;;4.23;3.83;;;;;;;4.77;100.00;94948.56;5076224;28;20558;-55
2023/12/01 11:04:25;;;;;;;4.40;3.80;;;;;;;4.81;100.00;94938.63;5081978;28;20271;-55
2023/12/01 11:07:02;;;;;;;3.73;3.20;;;;;;;4.79;100.00;94933.53;5076226;28;20214;-55
2023/12/01 11:09:34;;;;;;;3.10;2.90;;;;;;;4.79;100.00;94935.31;5076686;28;20209;-54
2023/12/01 11:12:08;;;;;;;2.97;2.63;;;;;;;4.82;100.00;94921.91;5071493;28;20809;-54
2023/12/01 11:14:36;;;;;;;2.60;2.40;;;;;;;4.84;100.00;94926.06;5079161;28;20598;-55
2023/12/01 11:17:04;;;;;;;2.90;2.60;;;;;;;4.87;100.00;94922.31;5081164;28;20594;-53
2023/12/01 11:19:35;;;;;;;2.47;2.37;;;;;;;4.96;100.00;94921.38;5078627;28;20282;-54
2023/12/01 11:22:27;;;;;;;2.50;2.40;;;;;;;4.90;100.00;94917.59;5075819;28;20234;-52
2023/12/01 11:24:54;;;;;;;2.33;2.20;;;;;;;4.96;100.00;94919.59;5072429;28;20199;-52
2023/12/01 11:27:23;;;;;;;2.13;2.03;;;;;;;4.99;100.00;94924.53;5075242;28;20647;-53
2023/12/01 11:30:00;;;;;;;2.17;2.00;;;;;;;5.01;100.00;94927.84;5075509;28;20293;-55
2023/12/01 11:32:32;;;;;;;2.57;2.00;;;;;;;5.01;100.00;94927.84;5054413;28;20671;-53
2023/12/01 11:35:08;;;;;;;1.77;1.50;;;;;;;5.08;100.00;94933.28;5072872;28;20532;-52
2023/12/01 11:37:59;;;;;;;2.10;1.73;;;;;;;5.06;100.00;94929.19;5075151;28;20205;-54